Archival Weather

Chicago O'Hare International

Chicago, Illinois (KORD)

Report from: Tuesday, December 6, 2022 4:51 AM CST
Current time: Saturday, February 4, 2023 9:35 PM CST

Current weather
Weather history
Weather forecast

Temperature2.8°C (37.0°F)
Wind chill-0.6°C (31.0°F)
Dew point-0.6°C (30.9°F)
Winds 7 kts (3.6 m/s, 8.1 mph) North-Northeast (20°)
Visibility10 mi. (16.1 km)
Clouds Ceiling: Broken clouds 3,600 ft. (1,097 m)
Broken clouds 11,000 ft. (3,353 m)
Altimeter29.94 in.Hg (1014 mB)
Relative humidity78 %
Density altitude-1,414 ft. (-431 m)
Sea-level pressure101.4 kPa (1014 mB, 29.95 in.Hg)
Remarks Automated weather observing station with precipitation discriminator
Flight conditions Visual Meteorological Conditions
Raw dataKORD 061051Z 02007KT 10SM BKN036 BKN110 03/M01 A2994 RMK AO2 SLP143 T00281006
An unhandled exception has occurred. See browser dev tools for details. Reload 🗙